Time;durP1;ratioP1;P1;durP2;ratioP2;P2;SDS_P1;SDS_P2;PMS_P1;PMS_P2;Temp;Humidity;BMP_temperature;BMP_pressure;BME280_temperature;BME280_humidity;BME280_pressure;Samples;Min_cycle;Max_cycle;Signal;HPM_P1;HPM_P2
2022/01/17 00:00:36;;;;;;;78.97;28.92;;;7.10;99.90;;;;;;5125981;28;20181;-76
2022/01/17 00:03:01;;;;;;;65.30;26.90;;;7.20;99.90;;;;;;5120428;28;20165;-76
2022/01/17 00:05:28;;;;;;;64.60;28.08;;;7.20;99.90;;;;;;5121318;28;20262;-76
2022/01/17 00:07:54;;;;;;;64.75;27.15;;;7.10;99.90;;;;;;5120573;28;20979;-76
2022/01/17 00:10:19;;;;;;;74.60;27.95;;;7.00;99.90;;;;;;5124945;28;20189;-78
2022/01/17 00:12:47;;;;;;;78.28;28.92;;;7.10;99.90;;;;;;5127516;28;20172;-77
2022/01/17 00:15:24;;;;;;;71.03;28.55;;;7.10;99.90;;;;;;5123422;28;20510;-77
2022/01/17 00:18:07;;;;;;;76.50;28.25;;;7.10;99.90;;;;;;5123678;28;20191;-77
2022/01/17 00:20:33;;;;;;;84.35;29.98;;;6.90;99.90;;;;;;5123623;28;20216;-77
2022/01/17 00:22:58;;;;;;;74.43;27.90;;;6.80;99.90;;;;;;5122932;28;20165;-77
2022/01/17 00:25:24;;;;;;;76.88;27.50;;;7.00;99.90;;;;;;5116438;28;20173;-78
2022/01/17 00:27:51;;;;;;;77.22;29.13;;;7.00;99.90;;;;;;5119373;28;20204;-78
2022/01/17 00:30:17;;;;;;;71.28;26.58;;;7.00;99.90;;;;;;5119840;28;20180;-77
2022/01/17 00:32:42;;;;;;;74.57;28.83;;;7.00;99.90;;;;;;5116658;28;20169;-80
2022/01/17 00:35:09;;;;;;;76.85;30.88;;;7.00;99.90;;;;;;5119926;28;20169;-79
2022/01/17 00:37:34;;;;;;;78.88;29.58;;;6.90;99.90;;;;;;5128675;28;20169;-77
2022/01/17 00:40:00;;;;;;;74.32;29.63;;;6.80;99.90;;;;;;5124306;28;20189;-77
2022/01/17 00:42:25;;;;;;;65.20;26.90;;;6.90;99.90;;;;;;5119266;28;20229;-77
2022/01/17 00:44:51;;;;;;;74.32;27.77;;;7.00;99.90;;;;;;5118321;28;20172;-78
2022/01/17 00:47:17;;;;;;;72.25;28.10;;;7.00;99.90;;;;;;5116453;28;20194;-78
2022/01/17 00:49:42;;;;;;;73.53;30.40;;;7.10;99.90;;;;;;5115739;28;20604;-77
2022/01/17 00:52:08;;;;;;;72.82;28.98;;;7.00;99.90;;;;;;5115784;28;20168;-84
2022/01/17 00:54:34;;;;;;;86.63;28.40;;;7.10;99.90;;;;;;5116025;28;20173;-76
2022/01/17 00:56:59;;;;;;;77.15;29.20;;;7.20;99.90;;;;;;5115811;28;20641;-81
2022/01/17 00:59:25;;;;;;;74.53;26.65;;;7.20;99.90;;;;;;5115927;28;20189;-77
2022/01/17 01:01:50;;;;;;;59.30;25.95;;;6.90;99.90;;;;;;5115323;28;20188;-78
2022/01/17 01:04:16;;;;;;;76.13;28.27;;;6.90;99.90;;;;;;5115422;27;20214;-84
2022/01/17 01:06:42;;;;;;;79.68;28.88;;;7.00;99.90;;;;;;5114907;28;20661;-80
2022/01/17 01:09:07;;;;;;;67.88;27.35;;;7.10;99.90;;;;;;5115355;28;20208;-78
2022/01/17 01:11:33;;;;;;;64.40;25.88;;;7.00;99.90;;;;;;5114918;28;20178;-76
2022/01/17 01:13:59;;;;;;;67.38;27.90;;;7.00;99.90;;;;;;5115782;28;20200;-81
2022/01/17 01:16:32;;;;;;;71.35;28.52;;;7.10;99.90;;;;;;5114993;28;20165;-78
2022/01/17 01:19:09;;;;;;;71.63;28.63;;;6.90;99.90;;;;;;5115012;28;20730;-78
2022/01/17 01:29:45;;;;;;;60.50;26.35;;;7.10;99.90;;;;;;5115210;28;20251;-77
2022/01/17 01:32:12;;;;;;;68.05;26.80;;;7.10;99.90;;;;;;5115404;28;20244;-82
2022/01/17 01:34:46;;;;;;;64.28;27.38;;;7.10;99.90;;;;;;5115595;28;20165;-80
2022/01/17 01:37:12;;;;;;;58.47;25.05;;;7.10;99.90;;;;;;5115395;28;20157;-76
2022/01/17 01:39:38;;;;;;;55.10;25.25;;;7.20;99.90;;;;;;5113637;28;20168;-78
2022/01/17 01:42:10;;;;;;;58.92;25.55;;;7.20;99.90;;;;;;5113592;28;20196;-77
2022/01/17 01:44:37;;;;;;;53.05;25.05;;;7.10;99.90;;;;;;5114164;28;20172;-78
2022/01/17 01:47:03;;;;;;;67.75;27.70;;;7.10;99.90;;;;;;5115158;28;20172;-83
2022/01/17 01:49:28;;;;;;;63.65;26.85;;;7.20;99.90;;;;;;5114615;28;20209;-76
2022/01/17 01:51:54;;;;;;;56.25;26.20;;;7.00;99.90;;;;;;5114728;28;20181;-77
2022/01/17 01:54:19;;;;;;;62.33;25.85;;;7.30;99.90;;;;;;5114767;28;20282;-80
2022/01/17 01:56:47;;;;;;;62.10;26.33;;;7.20;99.90;;;;;;5114846;28;20520;-77
2022/01/17 01:59:14;;;;;;;62.47;24.38;;;7.20;99.90;;;;;;5113503;28;20544;-76
2022/01/17 02:01:40;;;;;;;56.90;26.15;;;7.10;99.90;;;;;;5115051;28;20248;-76
2022/01/17 02:04:06;;;;;;;47.30;23.73;;;7.00;99.90;;;;;;5114597;28;20204;-76
2022/01/17 02:06:32;;;;;;;56.55;25.60;;;7.10;99.90;;;;;;5113363;28;20195;-76
2022/01/17 02:09:00;;;;;;;57.90;25.95;;;7.30;99.90;;;;;;5115125;28;20314;-86
2022/01/17 02:11:25;;;;;;;54.40;24.95;;;7.30;99.90;;;;;;5119003;28;20661;-76
2022/01/17 02:13:51;;;;;;;59.38;26.08;;;7.40;99.90;;;;;;5115795;28;20169;-76
2022/01/17 02:16:19;;;;;;;53.53;24.20;;;7.50;99.90;;;;;;5117413;28;20158;-76
2022/01/17 02:18:45;;;;;;;63.80;25.83;;;7.50;99.90;;;;;;5118252;28;20247;-80
2022/01/17 02:21:21;;;;;;;53.58;26.00;;;7.60;99.90;;;;;;5114160;28;20185;-76
2022/01/17 02:23:49;;;;;;;53.58;25.40;;;7.40;99.90;;;;;;5113340;28;20256;-76
2022/01/17 02:26:16;;;;;;;56.03;26.10;;;7.10;99.90;;;;;;5113274;28;20228;-75
2022/01/17 02:28:49;;;;;;;58.80;26.17;;;7.20;99.90;;;;;;5113372;28;20289;-75
2022/01/17 02:31:15;;;;;;;54.63;25.65;;;7.00;99.90;;;;;;5112598;28;20218;-75
2022/01/17 02:33:41;;;;;;;57.15;25.30;;;6.90;99.90;;;;;;5113094;28;20165;-75
2022/01/17 02:36:07;;;;;;;58.50;25.80;;;7.10;99.90;;;;;;5112222;28;20173;-76
2022/01/17 02:38:32;;;;;;;57.60;26.58;;;7.40;99.90;;;;;;5113022;28;20176;-75
2022/01/17 02:40:58;;;;;;;62.90;26.67;;;7.30;99.90;;;;;;5113116;28;20200;-77
2022/01/17 02:43:26;;;;;;;60.15;26.10;;;7.60;99.90;;;;;;5113621;28;20186;-80
2022/01/17 02:48:19;;;;;;;57.47;26.05;;;7.60;99.90;;;;;;5113116;28;20208;-76
2022/01/17 02:50:46;;;;;;;54.38;26.08;;;7.70;99.90;;;;;;5113153;28;20181;-76
2022/01/17 02:53:12;;;;;;;57.30;27.42;;;7.60;99.90;;;;;;5112869;28;20697;-76
2022/01/17 02:55:44;;;;;;;58.58;26.17;;;7.60;99.90;;;;;;5113053;28;20665;-76
2022/01/17 02:58:10;;;;;;;55.10;24.65;;;7.60;99.90;;;;;;5111716;28;20180;-75
2022/01/17 03:00:35;;;;;;;50.20;23.25;;;7.60;99.90;;;;;;5113155;28;20189;-76
2022/01/17 03:03:01;;;;;;;48.00;24.52;;;7.30;99.90;;;;;;5113834;28;20169;-76
2022/01/17 03:05:27;;;;;;;54.03;26.25;;;7.20;99.90;;;;;;5115339;28;20531;-76
2022/01/17 03:07:52;;;;;;;56.33;26.30;;;7.30;99.90;;;;;;5115163;28;20246;-75
2022/01/17 03:12:47;;;;;;;52.78;25.58;;;7.60;99.90;;;;;;5115110;28;20526;-77
2022/01/17 03:15:13;;;;;;;52.22;26.02;;;7.70;99.90;;;;;;5116596;28;20161;-80
2022/01/17 03:17:40;;;;;;;53.03;25.85;;;7.60;99.90;;;;;;5115410;28;20645;-76
2022/01/17 03:20:06;;;;;;;49.95;25.63;;;7.50;99.90;;;;;;5113991;28;20200;-75
2022/01/17 03:22:33;;;;;;;50.70;24.63;;;7.50;99.90;;;;;;5114295;28;20652;-76
2022/01/17 03:24:58;;;;;;;63.15;26.55;;;7.60;99.90;;;;;;5116153;28;20172;-76
2022/01/17 03:27:24;;;;;;;55.85;26.70;;;7.40;99.90;;;;;;5116955;28;20173;-76
2022/01/17 03:29:50;;;;;;;47.53;24.38;;;7.50;99.90;;;;;;5117123;28;20669;-78
2022/01/17 03:32:15;;;;;;;66.53;26.88;;;7.70;99.90;;;;;;5115071;28;20218;-76
2022/01/17 03:34:42;;;;;;;54.65;25.65;;;7.50;99.90;;;;;;5115746;28;20193;-75
2022/01/17 03:37:08;;;;;;;52.22;25.75;;;7.60;99.90;;;;;;5114552;28;20177;-76
2022/01/17 03:39:35;;;;;;;52.70;25.40;;;7.80;99.90;;;;;;5114663;28;20162;-76
2022/01/17 03:42:01;;;;;;;50.20;25.30;;;7.90;99.90;;;;;;5115941;28;20654;-76
2022/01/17 03:44:27;;;;;;;52.65;24.02;;;7.60;99.90;;;;;;5119576;28;20165;-79
2022/01/17 03:46:53;;;;;;;51.40;24.48;;;7.60;99.90;;;;;;5119455;28;20165;-76
2022/01/17 03:49:19;;;;;;;51.60;25.63;;;7.70;99.90;;;;;;5119147;28;20255;-76
2022/01/17 03:51:44;;;;;;;49.67;24.05;;;7.70;99.90;;;;;;5120393;28;20241;-76
2022/01/17 03:54:10;;;;;;;50.53;24.50;;;7.60;99.90;;;;;;5119802;28;20180;-77
2022/01/17 03:56:35;;;;;;;52.33;25.17;;;7.40;99.90;;;;;;5119989;28;20177;-79
2022/01/17 03:59:01;;;;;;;46.30;24.20;;;7.60;99.90;;;;;;5119815;28;20635;-77
2022/01/17 04:01:27;;;;;;;47.90;24.05;;;7.60;99.90;;;;;;5119963;28;20185;-76
2022/01/17 04:03:52;;;;;;;52.65;25.40;;;7.40;99.90;;;;;;5118517;28;20253;-77
2022/01/17 04:06:18;;;;;;;52.55;24.92;;;7.50;99.90;;;;;;5118779;28;20161;-77
2022/01/17 04:08:44;;;;;;;52.60;24.50;;;7.50;99.90;;;;;;5118552;28;20213;-76
2022/01/17 04:11:10;;;;;;;47.25;22.77;;;7.70;99.90;;;;;;5118183;28;20215;-77
2022/01/17 04:13:36;;;;;;;50.15;24.15;;;7.50;99.90;;;;;;5120304;28;20177;-77
2022/01/17 04:16:02;;;;;;;51.90;25.55;;;7.40;99.90;;;;;;5120707;27;20240;-77
2022/01/17 04:18:29;;;;;;;56.40;25.65;;;7.60;99.90;;;;;;5120100;28;20161;-76
2022/01/17 04:21:00;;;;;;;54.10;24.00;;;7.60;99.90;;;;;;5120474;27;20195;-85
2022/01/17 04:23:25;;;;;;;47.78;23.95;;;7.40;99.90;;;;;;5121044;28;20161;-84
2022/01/17 04:25:51;;;;;;;56.90;24.65;;;7.40;99.90;;;;;;5120523;28;20189;-77
2022/01/17 04:28:16;;;;;;;52.75;24.35;;;7.50;99.90;;;;;;5118985;28;20197;-77
2022/01/17 04:30:43;;;;;;;50.65;24.17;;;7.50;99.90;;;;;;5119959;28;20181;-76
2022/01/17 04:33:09;;;;;;;50.03;24.55;;;7.70;99.90;;;;;;5118476;28;20169;-76
2022/01/17 04:35:35;;;;;;;50.28;24.10;;;7.50;99.90;;;;;;5120264;28;20179;-76
2022/01/17 04:38:04;;;;;;;52.80;24.23;;;7.40;99.90;;;;;;5119407;28;20617;-77
2022/01/17 04:40:38;;;;;;;51.88;25.13;;;7.30;99.90;;;;;;5119690;28;20598;-77
2022/01/17 04:43:13;;;;;;;44.35;22.67;;;7.30;99.90;;;;;;5119829;28;20251;-79
2022/01/17 04:45:38;;;;;;;47.38;24.50;;;7.40;99.90;;;;;;5119488;28;20171;-83
2022/01/17 04:48:08;;;;;;;58.22;25.50;;;7.40;99.90;;;;;;5120865;28;20201;-79
2022/01/17 04:50:33;;;;;;;50.13;23.50;;;7.70;99.90;;;;;;5121167;28;20236;-84
2022/01/17 04:53:01;;;;;;;49.40;25.48;;;7.90;99.90;;;;;;5118973;28;20648;-76
2022/01/17 04:55:28;;;;;;;48.97;24.05;;;7.90;99.90;;;;;;5118580;28;20164;-83
2022/01/17 04:57:58;;;;;;;46.20;23.60;;;7.80;99.90;;;;;;5117622;28;20168;-76
2022/01/17 05:00:25;;;;;;;60.88;25.75;;;7.60;99.90;;;;;;5118619;28;20608;-78
2022/01/17 05:02:51;;;;;;;54.60;25.80;;;7.60;99.90;;;;;;5118889;28;20558;-77
2022/01/17 05:05:17;;;;;;;50.70;23.92;;;7.50;99.90;;;;;;5120375;27;20190;-78
2022/01/17 05:07:43;;;;;;;53.72;24.90;;;7.60;99.90;;;;;;5118229;28;20218;-81
2022/01/17 05:10:11;;;;;;;53.55;25.27;;;7.70;99.90;;;;;;5119770;28;20260;-83
2022/01/17 05:12:38;;;;;;;57.17;26.23;;;7.80;99.90;;;;;;5117250;28;20169;-78
2022/01/17 05:15:10;;;;;;;50.15;25.08;;;7.70;99.90;;;;;;5115259;28;20246;-77
2022/01/17 05:17:42;;;;;;;66.35;25.35;;;7.70;99.90;;;;;;5116444;28;20208;-77
2022/01/17 05:20:08;;;;;;;55.45;26.23;;;7.80;99.90;;;;;;5116777;28;20641;-77
2022/01/17 05:22:36;;;;;;;61.22;26.42;;;7.60;99.90;;;;;;5117939;28;20173;-77
2022/01/17 05:25:07;;;;;;;53.08;24.92;;;7.70;99.90;;;;;;5116444;28;20246;-81
2022/01/17 05:27:35;;;;;;;66.93;28.45;;;7.60;99.90;;;;;;5117251;28;20263;-85
2022/01/17 05:30:01;;;;;;;58.47;26.85;;;7.60;99.90;;;;;;5116317;28;20481;-77
2022/01/17 05:32:26;;;;;;;65.22;28.50;;;7.50;99.90;;;;;;5114575;28;20153;-76
2022/01/17 05:34:52;;;;;;;69.60;27.83;;;7.50;99.90;;;;;;5114207;28;20648;-77
2022/01/17 05:37:18;;;;;;;59.33;26.40;;;7.40;99.90;;;;;;5114369;28;20282;-76
2022/01/17 05:39:43;;;;;;;65.20;28.17;;;7.50;99.90;;;;;;5113876;28;20169;-77
2022/01/17 05:42:14;;;;;;;64.43;27.42;;;7.60;99.90;;;;;;5115386;28;20247;-77
2022/01/17 05:44:40;;;;;;;59.45;27.80;;;7.60;99.90;;;;;;5124938;27;20173;-81
2022/01/17 05:47:06;;;;;;;63.15;29.00;;;7.70;99.90;;;;;;5134570;28;20200;-77
2022/01/17 05:49:31;;;;;;;70.95;27.75;;;7.60;99.90;;;;;;5125313;28;20224;-76
2022/01/17 05:51:57;;;;;;;61.95;27.80;;;7.60;99.90;;;;;;5124993;28;20209;-76
2022/01/17 05:54:23;;;;;;;63.42;26.15;;;7.60;99.90;;;;;;5121955;28;20187;-76
2022/01/17 05:56:48;;;;;;;70.15;28.63;;;7.40;99.90;;;;;;5120891;28;20165;-77
2022/01/17 05:59:16;;;;;;;69.93;28.63;;;7.50;99.90;;;;;;5123744;28;20172;-76
2022/01/17 06:01:44;;;;;;;73.57;31.55;;;7.50;99.90;;;;;;5122200;28;20173;-86
2022/01/17 06:04:09;;;;;;;74.80;30.42;;;7.60;99.90;;;;;;5117965;28;20181;-81
2022/01/17 06:06:35;;;;;;;68.25;28.55;;;7.60;99.90;;;;;;5117702;28;20527;-82
2022/01/17 06:09:01;;;;;;;72.15;29.80;;;7.50;99.90;;;;;;5115776;28;20226;-79
2022/01/17 06:11:26;;;;;;;69.55;30.40;;;7.50;99.90;;;;;;5116822;28;20199;-77
2022/01/17 06:13:52;;;;;;;71.10;29.35;;;7.50;99.90;;;;;;5117534;28;20552;-78
2022/01/17 06:16:19;;;;;;;67.82;28.83;;;7.40;99.90;;;;;;5119589;28;20226;-79
2022/01/17 06:18:44;;;;;;;81.13;30.63;;;7.50;99.90;;;;;;5119141;28;20165;-80
2022/01/17 06:21:10;;;;;;;75.55;32.03;;;7.50;99.90;;;;;;5117610;28;20193;-78
2022/01/17 06:23:35;;;;;;;78.55;32.38;;;7.60;99.90;;;;;;5116163;28;20196;-76
2022/01/17 06:26:01;;;;;;;72.57;29.10;;;7.70;99.90;;;;;;5114058;28;20311;-84
2022/01/17 06:28:28;;;;;;;78.25;30.73;;;7.50;99.90;;;;;;5114153;28;20225;-77
2022/01/17 06:30:54;;;;;;;77.68;31.15;;;7.50;99.90;;;;;;5113567;28;20615;-76
2022/01/17 06:33:20;;;;;;;76.25;29.38;;;7.70;99.90;;;;;;5113579;28;20177;-76
2022/01/17 06:35:45;;;;;;;67.22;29.98;;;7.70;99.90;;;;;;5112005;28;20524;-77
2022/01/17 06:38:11;;;;;;;85.85;32.25;;;7.50;99.90;;;;;;5114327;28;20169;-76
2022/01/17 06:40:36;;;;;;;70.32;29.95;;;7.60;99.90;;;;;;5113735;28;20217;-76
2022/01/17 06:43:04;;;;;;;70.45;32.53;;;7.60;99.90;;;;;;5114068;28;20165;-81
2022/01/17 06:45:30;;;;;;;80.70;33.33;;;7.70;99.90;;;;;;5112757;28;20180;-76
2022/01/17 06:47:55;;;;;;;83.18;31.70;;;7.70;99.90;;;;;;5114032;28;20989;-79
2022/01/17 06:50:21;;;;;;;77.97;32.55;;;7.80;99.90;;;;;;5114654;28;20541;-86
2022/01/17 06:52:47;;;;;;;82.78;32.00;;;7.80;99.90;;;;;;5112928;28;20260;-77
2022/01/17 06:55:12;;;;;;;73.45;31.65;;;7.90;99.90;;;;;;5115528;28;20248;-79
2022/01/17 06:57:38;;;;;;;76.97;34.20;;;7.80;99.90;;;;;;5114477;28;20198;-77
2022/01/17 07:00:06;;;;;;;80.50;32.75;;;7.90;99.90;;;;;;5115529;28;20740;-77
2022/01/17 07:02:32;;;;;;;73.68;33.33;;;7.90;99.90;;;;;;5116490;28;20172;-77
2022/01/17 07:04:58;;;;;;;74.07;32.90;;;8.10;99.90;;;;;;5114884;28;20194;-86
2022/01/17 07:07:23;;;;;;;66.93;32.17;;;8.10;99.90;;;;;;5115098;28;20165;-77
2022/01/17 07:09:49;;;;;;;79.07;32.20;;;7.90;99.90;;;;;;5115225;28;20206;-85
2022/01/17 07:12:14;;;;;;;77.57;32.63;;;7.70;99.90;;;;;;5114129;28;20161;-76
2022/01/17 07:14:42;;;;;;;87.95;34.83;;;7.80;99.90;;;;;;5115343;28;20162;-77
2022/01/17 07:17:11;;;;;;;66.90;32.10;;;7.90;99.90;;;;;;5116976;28;20546;-80
2022/01/17 07:19:38;;;;;;;68.93;33.80;;;8.00;99.90;;;;;;5119082;28;20204;-84
2022/01/17 07:22:04;;;;;;;62.08;31.77;;;8.00;99.90;;;;;;5120681;28;20185;-78
2022/01/17 07:24:30;;;;;;;64.10;31.08;;;8.10;99.90;;;;;;5119353;28;20177;-79
2022/01/17 07:26:55;;;;;;;61.20;31.33;;;8.00;99.90;;;;;;5117006;28;20803;-80
2022/01/17 07:29:22;;;;;;;65.13;31.58;;;8.00;99.90;;;;;;5116215;28;20305;-85
2022/01/17 07:31:48;;;;;;;69.13;32.38;;;8.10;99.90;;;;;;5099309;28;20194;-83
2022/01/17 07:34:13;;;;;;;69.50;30.98;;;8.10;99.90;;;;;;5112234;28;20209;-79
2022/01/17 07:36:39;;;;;;;71.85;31.50;;;8.20;99.90;;;;;;5102256;28;20200;-77
2022/01/17 07:39:05;;;;;;;61.25;30.75;;;8.20;99.90;;;;;;5101525;28;20237;-77
2022/01/17 07:41:31;;;;;;;65.55;31.27;;;8.00;99.90;;;;;;5101480;28;20263;-78
2022/01/17 07:43:58;;;;;;;66.45;31.55;;;8.00;99.90;;;;;;5113565;28;20211;-78
2022/01/17 07:46:29;;;;;;;61.03;29.92;;;8.20;99.90;;;;;;5119454;28;20584;-77
2022/01/17 07:51:26;;;;;;;50.63;26.05;;;8.10;99.90;;;;;;5115215;28;20189;-76
2022/01/17 07:53:53;;;;;;;71.25;27.50;;;7.90;99.90;;;;;;5115379;28;20226;-77
2022/01/17 07:56:19;;;;;;;61.25;27.75;;;7.90;99.90;;;;;;5103335;28;20173;-80
2022/01/17 07:58:44;;;;;;;47.80;25.30;;;7.90;99.90;;;;;;5100432;28;20181;-82
2022/01/17 08:01:10;;;;;;;50.53;24.88;;;8.00;99.90;;;;;;5103545;28;20242;-82
2022/01/17 08:03:36;;;;;;;42.65;23.95;;;8.00;99.90;;;;;;5114337;28;20665;-77
2022/01/17 08:06:02;;;;;;;49.65;24.42;;;7.90;99.90;;;;;;5114948;28;20181;-84
2022/01/17 08:08:28;;;;;;;48.25;23.75;;;7.90;99.90;;;;;;5115584;28;20205;-77
2022/01/17 08:10:53;;;;;;;37.67;20.92;;;8.00;99.90;;;;;;5105030;28;20189;-78
2022/01/17 08:13:19;;;;;;;40.65;21.80;;;7.80;99.90;;;;;;5110750;28;20180;-80
2022/01/17 08:15:46;;;;;;;35.63;21.75;;;7.80;99.90;;;;;;5114756;28;20214;-79
2022/01/17 08:18:13;;;;;;;41.92;22.35;;;7.80;99.90;;;;;;5114527;28;20169;-80
2022/01/17 08:20:40;;;;;;;37.78;19.85;;;7.70;99.90;;;;;;5096990;28;20209;-81
2022/01/17 08:23:06;;;;;;;41.10;20.98;;;7.90;99.90;;;;;;5115749;28;20176;-78
2022/01/17 08:25:31;;;;;;;34.58;20.02;;;7.90;99.90;;;;;;5108515;28;20170;-77
2022/01/17 08:27:57;;;;;;;40.92;20.70;;;8.10;99.90;;;;;;5103419;28;20179;-77
2022/01/17 08:30:24;;;;;;;43.38;19.77;;;8.10;99.90;;;;;;5094973;28;20198;-79
2022/01/17 08:32:51;;;;;;;40.47;19.25;;;8.30;99.90;;;;;;5094379;28;20180;-77
2022/01/17 08:35:18;;;;;;;38.88;17.13;;;8.30;99.90;;;;;;5097589;28;20173;-77
2022/01/17 08:37:44;;;;;;;32.35;16.45;;;8.20;99.90;;;;;;5105355;28;20226;-84
2022/01/17 08:40:10;;;;;;;37.45;17.33;;;8.30;99.90;;;;;;5100217;28;20247;-78
2022/01/17 08:42:37;;;;;;;31.40;17.45;;;8.20;99.90;;;;;;5107968;28;20173;-76
2022/01/17 08:45:09;;;;;;;37.22;16.55;;;8.10;99.90;;;;;;5108932;28;20570;-80
2022/01/17 08:47:34;;;;;;;32.60;16.08;;;8.10;99.90;;;;;;5096410;28;20158;-77
2022/01/17 08:50:00;;;;;;;30.02;15.60;;;8.10;99.90;;;;;;5100159;28;20216;-77
2022/01/17 08:52:26;;;;;;;37.22;17.42;;;8.10;99.90;;;;;;5094649;28;20564;-77
2022/01/17 08:54:53;;;;;;;35.67;16.20;;;8.00;99.90;;;;;;5096987;28;20205;-78
2022/01/17 08:57:19;;;;;;;32.97;17.08;;;8.00;99.90;;;;;;5096534;28;20174;-88
2022/01/17 08:59:45;;;;;;;44.35;16.02;;;8.00;99.90;;;;;;5099240;28;20169;-77
2022/01/17 09:02:12;;;;;;;41.60;17.63;;;8.10;99.90;;;;;;5095879;28;20170;-76
2022/01/17 09:04:41;;;;;;;58.95;18.23;;;8.20;99.90;;;;;;5093601;28;20311;-77
2022/01/17 09:07:10;;;;;;;37.13;18.08;;;8.20;99.90;;;;;;5093096;28;20165;-78
2022/01/17 09:09:37;;;;;;;34.97;17.17;;;8.30;99.90;;;;;;5094314;28;20232;-78
2022/01/17 09:12:03;;;;;;;34.67;18.23;;;8.30;99.90;;;;;;5092398;28;20195;-80
2022/01/17 09:14:29;;;;;;;37.20;19.25;;;8.30;99.90;;;;;;5092416;28;20170;-76
2022/01/17 09:16:55;;;;;;;34.08;17.38;;;8.20;99.90;;;;;;5095198;28;20173;-77
2022/01/17 09:19:20;;;;;;;34.70;17.30;;;8.20;99.90;;;;;;5093743;28;20176;-76
2022/01/17 09:21:47;;;;;;;39.55;18.10;;;8.10;99.90;;;;;;5096492;28;20558;-77
2022/01/17 09:24:13;;;;;;;39.38;17.90;;;8.00;99.90;;;;;;5103076;28;20196;-78
2022/01/17 09:26:38;;;;;;;34.42;16.58;;;8.00;99.90;;;;;;5094464;28;20202;-77
2022/01/17 09:29:04;;;;;;;30.17;16.58;;;8.30;99.90;;;;;;5094523;28;20673;-76
2022/01/17 09:31:30;;;;;;;40.22;16.10;;;8.30;99.90;;;;;;5092284;28;20276;-83
2022/01/17 09:33:55;;;;;;;36.30;16.70;;;8.10;99.90;;;;;;5093638;28;20186;-81
2022/01/17 09:36:23;;;;;;;29.30;14.95;;;8.10;99.90;;;;;;5092168;28;20245;-79
2022/01/17 09:38:49;;;;;;;36.08;16.23;;;8.10;99.90;;;;;;5093360;28;20568;-80
2022/01/17 09:41:15;;;;;;;40.92;16.30;;;8.10;99.90;;;;;;5093329;28;20276;-79
2022/01/17 09:43:40;;;;;;;34.38;15.77;;;8.20;99.90;;;;;;5093457;28;20214;-79
2022/01/17 09:46:07;;;;;;;31.92;15.90;;;8.30;99.90;;;;;;5093726;28;20166;-79
2022/01/17 09:48:37;;;;;;;32.47;15.65;;;8.40;99.90;;;;;;5093628;28;20724;-82
2022/01/17 09:51:18;;;;;;;39.95;15.95;;;8.50;99.90;;;;;;5103942;28;20189;-79
2022/01/17 09:53:44;;;;;;;31.52;15.23;;;8.40;99.90;;;;;;5094074;28;20168;-80
2022/01/17 09:56:12;;;;;;;34.47;13.15;;;8.50;99.90;;;;;;5107952;28;20184;-84
2022/01/17 09:58:39;;;;;;;28.83;14.60;;;8.70;99.90;;;;;;5115964;28;20162;-87
2022/01/17 10:01:06;;;;;;;30.42;13.15;;;8.90;99.90;;;;;;5114145;28;20283;-86
2022/01/17 10:03:34;;;;;;;33.20;13.25;;;8.80;99.90;;;;;;5114236;28;20173;-85
2022/01/17 10:05:59;;;;;;;40.58;14.52;;;8.70;99.90;;;;;;5108987;28;20172;-82
2022/01/17 10:08:27;;;;;;;36.05;12.77;;;8.70;99.90;;;;;;5100982;28;20201;-87
2022/01/17 10:10:58;;;;;;;24.40;11.35;;;8.70;99.90;;;;;;5094784;28;20178;-87
2022/01/17 10:13:39;;;;;;;35.55;12.07;;;8.70;99.90;;;;;;5094203;28;20200;-79
2022/01/17 10:16:10;;;;;;;25.67;10.63;;;8.20;99.90;;;;;;5093571;28;20626;-78
2022/01/17 10:18:46;;;;;;;39.20;12.20;;;8.10;99.90;;;;;;5114137;28;20157;-84
2022/01/17 10:21:41;;;;;;;38.08;11.80;;;8.10;99.90;;;;;;5093938;28;20649;-84
2022/01/17 10:24:19;;;;;;;28.90;11.38;;;8.20;99.90;;;;;;5108713;28;20183;-79
2022/01/17 10:37:19;;;;;;;30.23;10.65;;;8.50;99.90;;;;;;5117327;28;20694;-78
2022/01/17 10:40:15;;;;;;;26.40;9.88;;;8.70;99.90;;;;;;5117458;28;20621;-88
2022/01/17 10:42:47;;;;;;;38.00;9.88;;;8.70;99.90;;;;;;5104078;28;20173;-86
2022/01/17 10:45:22;;;;;;;18.00;9.18;;;8.90;99.90;;;;;;5118477;28;20227;-92
2022/01/17 10:47:49;;;;;;;24.73;10.85;;;8.80;99.90;;;;;;5114607;28;20270;-81
2022/01/17 10:50:21;;;;;;;23.85;9.35;;;8.90;99.90;;;;;;5118354;28;20192;-88
2022/01/17 10:52:55;;;;;;;15.32;9.15;;;8.80;99.90;;;;;;5117284;28;20165;-79
2022/01/17 10:55:22;;;;;;;19.50;8.75;;;9.00;99.90;;;;;;5118309;28;20165;-77
2022/01/17 10:57:54;;;;;;;25.75;8.88;;;9.00;99.90;;;;;;5118786;28;20214;-78
2022/01/17 11:00:24;;;;;;;26.95;8.75;;;8.90;99.90;;;;;;5100382;28;20284;-77
2022/01/17 11:02:52;;;;;;;23.38;9.55;;;8.90;99.90;;;;;;5103201;28;20154;-78
2022/01/17 11:05:27;;;;;;;15.95;8.40;;;9.00;99.90;;;;;;5101188;28;20695;-77
2022/01/17 11:07:55;;;;;;;18.92;8.82;;;8.90;99.90;;;;;;5097114;28;20221;-78
2022/01/17 11:10:25;;;;;;;22.52;8.52;;;8.80;99.90;;;;;;5099315;28;20193;-78
2022/01/17 11:12:52;;;;;;;16.52;7.95;;;8.90;99.90;;;;;;5096905;28;20170;-78
2022/01/17 11:15:20;;;;;;;31.67;7.90;;;9.00;99.90;;;;;;5096326;28;20162;-77
2022/01/17 11:17:52;;;;;;;19.23;7.07;;;9.00;99.90;;;;;;5097174;28;20154;-78
2022/01/17 11:20:20;;;;;;;20.38;8.48;;;9.10;99.90;;;;;;5115169;28;20220;-77
2022/01/17 11:22:48;;;;;;;13.68;6.82;;;9.10;99.90;;;;;;5116251;28;20173;-77
2022/01/17 11:25:21;;;;;;;29.27;7.95;;;8.90;99.90;;;;;;5115050;28;20172;-80
2022/01/17 11:27:47;;;;;;;24.40;7.82;;;8.90;99.90;;;;;;5118242;28;20187;-79
2022/01/17 11:30:15;;;;;;;22.45;7.88;;;9.00;99.90;;;;;;5117983;28;20217;-77
2022/01/17 11:32:41;;;;;;;20.98;8.25;;;9.30;99.90;;;;;;5116433;28;20621;-78
2022/01/17 11:35:09;;;;;;;17.08;6.95;;;9.40;99.90;;;;;;5115699;28;20195;-77
2022/01/17 11:37:37;;;;;;;33.22;7.05;;;9.50;99.90;;;;;;5115700;28;20179;-78
2022/01/17 11:40:05;;;;;;;16.02;7.65;;;9.50;99.90;;;;;;5115303;28;20196;-78
2022/01/17 11:42:38;;;;;;;17.98;7.93;;;9.40;99.90;;;;;;5113657;28;20244;-80
2022/01/17 11:45:31;;;;;;;14.55;6.93;;;9.30;99.90;;;;;;5119147;28;20644;-79
2022/01/17 11:47:59;;;;;;;15.07;7.72;;;9.30;99.90;;;;;;5116167;28;20660;-86
2022/01/17 11:50:31;;;;;;;21.98;8.70;;;9.20;99.90;;;;;;5117917;28;20653;-85
2022/01/17 11:52:57;;;;;;;12.38;6.82;;;9.30;99.90;;;;;;5116627;28;20590;-78
2022/01/17 11:55:47;;;;;;;16.85;7.43;;;9.30;99.90;;;;;;5117492;28;20506;-79
2022/01/17 11:58:15;;;;;;;15.48;7.03;;;9.50;99.90;;;;;;5116836;28;20165;-79
2022/01/17 12:00:41;;;;;;;15.45;7.30;;;9.50;99.90;;;;;;5116055;28;20208;-78
2022/01/17 12:03:21;;;;;;;16.13;7.55;;;9.60;99.90;;;;;;5115809;28;20561;-77
2022/01/17 12:05:48;;;;;;;24.08;7.05;;;9.40;99.90;;;;;;5116370;28;20169;-78
2022/01/17 12:08:25;;;;;;;25.35;7.20;;;9.30;99.90;;;;;;5116095;28;20201;-83
2022/01/17 12:10:57;;;;;;;11.55;6.20;;;9.10;99.90;;;;;;5114642;28;20547;-78
2022/01/17 12:13:36;;;;;;;30.35;8.77;;;9.00;99.90;;;;;;5116258;28;20165;-78
2022/01/17 12:16:33;;;;;;;19.17;6.68;;;8.90;99.90;;;;;;5116463;28;20251;-78
2022/01/17 12:19:05;;;;;;;16.52;6.00;;;8.90;99.90;;;;;;5106113;28;20543;-78
2022/01/17 12:21:47;;;;;;;23.23;6.32;;;9.00;99.90;;;;;;5117703;28;20311;-90
2022/01/17 12:24:25;;;;;;;20.88;7.18;;;9.10;99.90;;;;;;5117221;28;20164;-83
2022/01/17 12:27:06;;;;;;;21.27;7.60;;;9.10;99.90;;;;;;5116671;28;20238;-78
2022/01/17 12:29:47;;;;;;;24.75;8.25;;;9.30;99.90;;;;;;5116947;28;20293;-84
2022/01/17 12:32:24;;;;;;;23.70;7.80;;;9.50;99.90;;;;;;5116671;28;20165;-78
2022/01/17 12:34:52;;;;;;;20.65;7.07;;;9.60;99.90;;;;;;5118462;28;20165;-79
2022/01/17 12:37:41;;;;;;;19.15;7.10;;;9.80;99.90;;;;;;5117773;28;20162;-89
2022/01/17 12:40:20;;;;;;;21.05;6.88;;;9.90;99.90;;;;;;5119409;28;20208;-77
2022/01/17 12:43:05;;;;;;;17.25;6.70;;;9.80;99.90;;;;;;5114802;28;20200;-77
2022/01/17 12:45:37;;;;;;;25.90;10.20;;;9.80;99.90;;;;;;5107292;28;20195;-79
2022/01/17 12:48:24;;;;;;;29.42;7.63;;;9.70;99.90;;;;;;5100739;28;20169;-78
2022/01/17 12:50:55;;;;;;;21.25;6.68;;;9.50;99.90;;;;;;5117931;28;20275;-86
2022/01/17 12:53:23;;;;;;;19.50;8.52;;;9.50;99.90;;;;;;5120783;28;20180;-78
2022/01/17 12:55:57;;;;;;;19.75;7.35;;;9.40;99.90;;;;;;5122756;28;20716;-80
2022/01/17 12:58:27;;;;;;;14.25;6.85;;;9.40;99.90;;;;;;5118078;28;20172;-79
2022/01/17 13:01:16;;;;;;;19.95;5.80;;;9.50;99.90;;;;;;5124561;28;20588;-84
2022/01/17 13:03:44;;;;;;;17.45;5.78;;;9.40;99.90;;;;;;5121402;28;20161;-82
2022/01/17 13:06:15;;;;;;;20.08;5.72;;;9.40;99.90;;;;;;5122370;28;20208;-77
2022/01/17 13:08:41;;;;;;;19.85;5.72;;;9.40;99.90;;;;;;5124757;28;20684;-78